createdAt,value
2022-11-05T00:03:40.613Z,-73
2022-11-05T00:09:01.118Z,-72
2022-11-05T00:14:21.627Z,-72
2022-11-05T00:19:23.378Z,-72
2022-11-05T00:24:44.159Z,-73
2022-11-05T00:29:45.907Z,-72
2022-11-05T00:34:48.078Z,-70
2022-11-05T00:39:50.083Z,-70
2022-11-05T00:45:00.866Z,-71
2022-11-05T00:50:03.071Z,-73
2022-11-05T00:55:04.981Z,-73
2022-11-05T01:00:07.279Z,-70
2022-11-05T01:05:09.437Z,-70
2022-11-05T01:10:11.378Z,-72
2022-11-05T01:15:19.886Z,-72
2022-11-05T01:20:23.175Z,-72
2022-11-05T01:25:25.440Z,-72
2022-11-05T01:30:27.268Z,-72
2022-11-05T01:35:29.597Z,-72
2022-11-05T01:40:31.430Z,-72
2022-11-05T01:45:34.494Z,-72
2022-11-05T01:50:51.392Z,-71
2022-11-05T01:56:02.424Z,-72
2022-11-05T02:01:04.449Z,-72
2022-11-05T02:06:09.449Z,-71
2022-11-05T02:11:17.551Z,-71
2022-11-05T02:17:03.991Z,-72
2022-11-05T02:22:27.104Z,-72
2022-11-05T02:27:54.020Z,-72
2022-11-05T02:33:29.249Z,-72
2022-11-05T02:38:58.375Z,-72
2022-11-05T02:44:47.917Z,-72
2022-11-05T02:49:59.288Z,-70
2022-11-05T02:55:32.420Z,-70
2022-11-05T03:00:51.103Z,-70
2022-11-05T03:06:22.890Z,-70
2022-11-05T03:11:28.638Z,-69
2022-11-05T03:16:42.540Z,-70
2022-11-05T03:21:56.323Z,-70
2022-11-05T03:27:15.200Z,-72
2022-11-05T03:32:20.652Z,-72
2022-11-05T03:37:24.254Z,-72
2022-11-05T03:42:29.847Z,-72
2022-11-05T03:47:37.711Z,-72
2022-11-05T03:52:47.098Z,-72
2022-11-05T03:57:53.737Z,-72
2022-11-05T04:02:55.999Z,-72
2022-11-05T04:08:16.387Z,-72
2022-11-05T04:13:24.279Z,-71
2022-11-05T04:18:26.281Z,-72
2022-11-05T04:23:46.651Z,-72
2022-11-05T04:29:08.113Z,-72
2022-11-05T04:34:10.195Z,-72
2022-11-05T04:39:12.134Z,-71
2022-11-05T04:44:15.491Z,-72
2022-11-05T04:49:17.252Z,-72
2022-11-05T04:54:19.089Z,-72
2022-11-05T04:59:20.915Z,-72
2022-11-05T05:04:22.736Z,-72
2022-11-05T05:09:24.567Z,-72
2022-11-05T05:14:26.404Z,-72
2022-11-05T05:19:29.066Z,-72
2022-11-05T05:24:30.836Z,-69
2022-11-05T05:29:32.691Z,-71
2022-11-05T05:34:34.964Z,-72
2022-11-05T05:39:36.823Z,-71
2022-11-05T05:44:39.189Z,-71
2022-11-05T05:49:40.963Z,-71
2022-11-05T05:54:43.195Z,-71
2022-11-05T05:59:45.346Z,-71
2022-11-05T06:04:47.170Z,-72
2022-11-05T06:09:48.999Z,-69
2022-11-05T06:14:50.940Z,-69
2022-11-05T06:19:52.870Z,-68
2022-11-05T06:24:54.697Z,-70
2022-11-05T06:29:56.656Z,-67
2022-11-05T06:34:58.682Z,-71
2022-11-05T06:40:00.584Z,-69
2022-11-05T06:45:02.424Z,-69
2022-11-05T06:50:04.570Z,-69
2022-11-05T06:55:07.031Z,-72
2022-11-05T07:00:09.548Z,-67
2022-11-05T07:05:11.976Z,-71
2022-11-05T07:10:16.622Z,-65
2022-11-05T07:15:18.552Z,-67
2022-11-05T07:20:20.498Z,-72
2022-11-05T07:25:22.239Z,-73
2022-11-05T07:30:24.268Z,-72
2022-11-05T07:35:26.789Z,-72
2022-11-05T07:40:29.779Z,-72
2022-11-05T07:45:32.427Z,-70
2022-11-05T07:50:36.663Z,-69
2022-11-05T07:55:40.784Z,-69
2022-11-05T08:00:43.028Z,-64
2022-11-05T08:05:46.666Z,-66
2022-11-05T08:10:48.498Z,-66
2022-11-05T08:15:50.292Z,-66
2022-11-05T08:20:52.067Z,-66
2022-11-05T08:25:54.732Z,-69
2022-11-05T08:30:57.066Z,-67
2022-11-05T08:36:03.204Z,-68
2022-11-05T08:41:05.582Z,-68
2022-11-05T08:46:07.352Z,-67
2022-11-05T08:51:09.201Z,-69
2022-11-05T08:56:10.993Z,-68
2022-11-05T09:01:13.120Z,-67
2022-11-05T09:06:14.887Z,-71
2022-11-05T09:11:18.141Z,-67
2022-11-05T09:16:24.303Z,-68
2022-11-05T09:21:26.311Z,-68
2022-11-05T09:26:28.083Z,-68
2022-11-05T09:31:29.887Z,-69
2022-11-05T09:36:31.778Z,-67
2022-11-05T09:41:38.803Z,-66
2022-11-05T09:46:54.727Z,-67
2022-11-05T09:51:58.063Z,-63
2022-11-05T09:57:02.775Z,-63
2022-11-05T10:02:15.679Z,-63
2022-11-05T10:07:21.546Z,-62
2022-11-05T10:12:30.230Z,-64
2022-11-05T10:17:39.049Z,-64
2022-11-05T10:22:46.499Z,-65
2022-11-05T10:27:54.724Z,-64
2022-11-05T10:32:59.333Z,-65
2022-11-05T10:38:02.427Z,-63
2022-11-05T10:43:10.761Z,-64
2022-11-05T10:48:32.596Z,-65
2022-11-05T10:53:51.072Z,-65
2022-11-05T10:58:56.658Z,-65
2022-11-05T11:04:37.724Z,-65
2022-11-05T11:09:48.385Z,-65
2022-11-05T11:15:15.947Z,-65
2022-11-05T11:20:22.802Z,-65
2022-11-05T11:25:27.234Z,-65
2022-11-05T11:30:29.264Z,-65
2022-11-05T11:35:31.343Z,-65
2022-11-05T11:40:37.194Z,-65
2022-11-05T11:45:49.280Z,-65
2022-11-05T11:50:51.363Z,-66
2022-11-05T11:55:56.476Z,-65
2022-11-05T12:01:20.993Z,-65
2022-11-05T12:06:53.200Z,-65
2022-11-05T12:12:10.984Z,-65
2022-11-05T12:17:50.474Z,-65
2022-11-05T12:23:14.562Z,-65
2022-11-05T12:28:57.867Z,-66
2022-11-05T12:34:06.383Z,-66
2022-11-05T12:39:35.167Z,-66
2022-11-05T12:45:10.559Z,-66
2022-11-05T12:50:28.486Z,-66
2022-11-05T12:55:37.772Z,-66
2022-11-05T13:00:44.488Z,-66
2022-11-05T13:05:54.973Z,-66
2022-11-05T13:11:10.376Z,-66
2022-11-05T13:16:30.725Z,-66
2022-11-05T13:21:36.035Z,-65
2022-11-05T13:26:47.807Z,-65
2022-11-05T13:32:28.037Z,-65
2022-11-05T13:37:57.739Z,-65
2022-11-05T13:43:08.838Z,-63
2022-11-05T13:48:32.158Z,-63
2022-11-05T13:54:02.037Z,-64
2022-11-05T13:59:23.528Z,-62
2022-11-05T14:04:37.775Z,-62
2022-11-05T14:09:40.821Z,-63
2022-11-05T14:14:48.680Z,-66
2022-11-05T14:20:05.402Z,-66
2022-11-05T14:25:19.398Z,-66
2022-11-05T14:30:42.788Z,-66
2022-11-05T14:35:44.932Z,-66
2022-11-05T14:40:47.835Z,-66
2022-11-05T14:45:57.211Z,-69
2022-11-05T14:50:59.759Z,-64
2022-11-05T14:56:17.995Z,-66
2022-11-05T15:01:32.474Z,-67
2022-11-05T15:06:36.350Z,-66
2022-11-05T15:11:41.672Z,-64
2022-11-05T15:16:47.570Z,-69
2022-11-05T15:21:50.074Z,-71
2022-11-05T15:27:03.524Z,-72
2022-11-05T15:32:14.622Z,-71
2022-11-05T15:37:16.515Z,-71
2022-11-05T15:42:22.910Z,-71
2022-11-05T15:47:31.757Z,-70
2022-11-05T15:52:37.168Z,-72
2022-11-05T15:57:49.347Z,-71
2022-11-05T16:03:14.751Z,-71
2022-11-05T16:08:22.617Z,-72
2022-11-05T16:13:35.055Z,-71
2022-11-05T16:18:40.204Z,-71
2022-11-05T16:23:54.428Z,-71
2022-11-05T16:28:57.850Z,-71
2022-11-05T16:34:00.050Z,-71
2022-11-05T16:39:02.092Z,-71
2022-11-05T16:44:04.087Z,-71
2022-11-05T16:49:06.016Z,-71
2022-11-05T16:54:08.609Z,-71
2022-11-05T16:59:13.800Z,-71
2022-11-05T17:04:15.663Z,-72
2022-11-05T17:09:17.758Z,-72
2022-11-05T17:14:19.806Z,-71
2022-11-05T17:19:21.730Z,-71
2022-11-05T17:24:24.011Z,-72
2022-11-05T17:29:26.006Z,-72
2022-11-05T17:34:28.116Z,-72
2022-11-05T17:39:31.879Z,-71
2022-11-05T17:44:33.994Z,-72
2022-11-05T17:49:36.103Z,-73
2022-11-05T17:54:38.357Z,-72
2022-11-05T17:59:42.035Z,-69
2022-11-05T18:04:43.860Z,-71
2022-11-05T18:09:45.877Z,-71
2022-11-05T18:14:47.743Z,-71
2022-11-05T18:19:49.690Z,-71
2022-11-05T18:24:51.567Z,-71
2022-11-05T18:29:54.762Z,-72
2022-11-05T18:34:57.691Z,-71
2022-11-05T18:40:00.898Z,-71
2022-11-05T18:45:04.453Z,-71
2022-11-05T18:50:08.175Z,-71
2022-11-05T18:55:11.267Z,-73
2022-11-05T19:00:13.826Z,-75
2022-11-05T19:05:28.898Z,-69
2022-11-05T19:10:31.865Z,-70
2022-11-05T19:15:34.074Z,-67
2022-11-05T19:20:37.981Z,-71
2022-11-05T19:25:44.245Z,-70
2022-11-05T19:30:46.276Z,-70
2022-11-05T19:35:48.270Z,-70
2022-11-05T19:40:50.347Z,-71
2022-11-05T19:45:52.320Z,-71
2022-11-05T19:50:54.678Z,-71
2022-11-05T19:55:57.959Z,-72
2022-11-05T20:00:59.931Z,-72
2022-11-05T20:06:09.799Z,-76
2022-11-05T20:11:12.123Z,-77
2022-11-05T20:16:37.008Z,-69
2022-11-05T20:21:40.020Z,-82
2022-11-05T20:26:42.586Z,-70
2022-11-05T20:31:46.588Z,-74
2022-11-05T20:36:48.442Z,-71
2022-11-05T20:41:50.325Z,-72
2022-11-05T20:46:52.231Z,-71
2022-11-05T20:51:55.031Z,-75
2022-11-05T20:56:58.723Z,-77
2022-11-05T21:02:00.709Z,-67
2022-11-05T21:07:02.855Z,-72
2022-11-05T21:12:10.497Z,-79
2022-11-05T21:17:14.360Z,-75
2022-11-05T21:22:18.415Z,-76
2022-11-05T21:27:20.297Z,-81
2022-11-05T21:32:23.919Z,-79
2022-11-05T21:37:25.907Z,-74
2022-11-05T21:42:29.762Z,-75
2022-11-05T21:47:31.743Z,-73
2022-11-05T21:52:52.299Z,-70
2022-11-05T21:58:13.020Z,-70
2022-11-05T22:03:15.496Z,-74
2022-11-05T22:08:17.375Z,-73
2022-11-05T22:13:19.435Z,-74
2022-11-05T22:18:21.400Z,-79
2022-11-05T22:23:23.325Z,-69
2022-11-05T22:28:25.251Z,-70
2022-11-05T22:33:27.231Z,-68
2022-11-05T22:38:30.775Z,-70
2022-11-05T22:43:32.895Z,-67
2022-11-05T22:48:41.833Z,-68
2022-11-05T22:53:51.111Z,-75
2022-11-05T22:58:53.539Z,-67
2022-11-05T23:03:57.627Z,-68
2022-11-05T23:09:19.335Z,-69
2022-11-05T23:14:21.391Z,-67
2022-11-05T23:19:42.226Z,-68
2022-11-05T23:24:44.191Z,-67
2022-11-05T23:29:46.629Z,-67
2022-11-05T23:34:48.959Z,-68
2022-11-05T23:39:51.228Z,-67
2022-11-05T23:45:14.399Z,-69
2022-11-05T23:50:16.954Z,-68
2022-11-05T23:55:19.361Z,-68
